Time;durP1;ratioP1;P1;durP2;ratioP2;P2;SDS_P1;SDS_P2;PMS_P1;PMS_P2;Temp;Humidity;BMP_temperature;BMP_pressure;BME280_temperature;BME280_humidity;BME280_pressure;Samples;Min_cycle;Max_cycle;Signal;HPM_P1;HPM_P2
2024/01/20 00:00:32;;;;;;;44.30;23.13;;;-3.60;99.90;;;;;;5021742;28;20041;-77
2024/01/20 00:03:19;;;;;;;74.47;32.58;;;-3.60;99.90;;;;;;5027150;28;20044;-76
2024/01/20 00:06:07;;;;;;;77.30;34.80;;;-3.60;99.90;;;;;;5027851;28;20044;-77
2024/01/20 00:08:57;;;;;;;87.68;38.33;;;-3.60;99.90;;;;;;5033238;28;20142;-76
2024/01/20 00:11:44;;;;;;;70.25;33.88;;;-3.60;99.90;;;;;;5031037;28;20052;-78
2024/01/20 00:14:32;;;;;;;76.95;34.67;;;-3.60;99.90;;;;;;5024573;28;20038;-77
2024/01/20 00:17:19;;;;;;;75.65;33.05;;;-3.60;99.90;;;;;;5034965;28;20069;-77
2024/01/20 00:20:13;;;;;;;80.55;33.72;;;-3.60;99.90;;;;;;5022830;28;20041;-77
2024/01/20 00:23:02;;;;;;;71.55;33.70;;;-3.70;99.90;;;;;;5036611;28;20052;-77
2024/01/20 00:25:50;;;;;;;66.72;30.92;;;-3.70;99.90;;;;;;5034464;28;20041;-77
2024/01/20 00:28:39;;;;;;;80.95;34.35;;;-3.60;99.90;;;;;;5033935;28;20048;-78
2024/01/20 00:31:29;;;;;;;72.65;32.50;;;-3.70;99.90;;;;;;5035364;28;20060;-78
2024/01/20 00:34:16;;;;;;;72.63;33.03;;;-3.60;99.90;;;;;;5033290;28;20508;-76
2024/01/20 00:37:05;;;;;;;73.18;34.55;;;-3.60;99.90;;;;;;5029677;28;20037;-78
2024/01/20 00:39:56;;;;;;;75.25;34.40;;;-3.60;99.90;;;;;;5032003;28;20049;-78
2024/01/20 00:42:46;;;;;;;72.20;33.75;;;-3.60;99.90;;;;;;5035027;28;20061;-79
2024/01/20 00:45:33;;;;;;;73.43;33.72;;;-3.60;99.90;;;;;;5038982;28;20033;-77
2024/01/20 00:48:21;;;;;;;76.38;32.97;;;-3.50;99.90;;;;;;5052987;28;20053;-78
2024/01/20 00:51:10;;;;;;;77.35;34.83;;;-3.50;99.90;;;;;;5059205;28;20071;-78
2024/01/20 00:53:58;;;;;;;81.57;35.83;;;-3.50;99.90;;;;;;5046935;28;20369;-79
2024/01/20 00:56:45;;;;;;;67.18;32.45;;;-3.50;99.90;;;;;;5046086;28;20068;-77
2024/01/20 00:59:32;;;;;;;69.07;31.13;;;-3.60;99.90;;;;;;5031942;28;20038;-77
2024/01/20 01:02:20;;;;;;;66.75;31.65;;;-3.70;99.90;;;;;;5032195;28;20041;-76
2024/01/20 01:05:10;;;;;;;66.07;31.33;;;-3.80;99.90;;;;;;5038116;28;20063;-77
2024/01/20 01:08:00;;;;;;;73.25;34.72;;;-3.80;99.90;;;;;;5025350;28;20569;-77
2024/01/20 01:10:50;;;;;;;63.58;30.23;;;-3.90;99.90;;;;;;5022400;28;20059;-76
2024/01/20 01:13:39;;;;;;;62.03;28.98;;;-3.90;99.90;;;;;;5047463;28;20063;-77
2024/01/20 01:16:27;;;;;;;70.50;31.05;;;-4.00;99.90;;;;;;5046524;28;20048;-78
2024/01/20 01:19:15;;;;;;;61.58;30.58;;;-4.00;99.90;;;;;;5018867;28;20780;-77
2024/01/20 01:22:04;;;;;;;66.25;29.63;;;-4.00;99.90;;;;;;5037158;28;20064;-77
2024/01/20 01:24:51;;;;;;;70.03;29.92;;;-4.10;99.90;;;;;;5031796;28;20042;-77
2024/01/20 01:27:39;;;;;;;59.97;28.58;;;-4.10;99.90;;;;;;5045293;28;20125;-78
2024/01/20 01:30:29;;;;;;;68.78;30.23;;;-4.00;99.90;;;;;;5046286;28;20049;-79
2024/01/20 01:33:18;;;;;;;69.43;29.88;;;-4.00;99.90;;;;;;5039423;28;20049;-77
2024/01/20 01:36:07;;;;;;;69.30;30.83;;;-4.10;99.90;;;;;;5036146;28;20049;-76
2024/01/20 01:38:54;;;;;;;64.05;29.48;;;-4.10;99.90;;;;;;5042405;28;20048;-77
2024/01/20 01:41:42;;;;;;;84.85;32.40;;;-4.00;99.90;;;;;;5047879;28;20041;-77
2024/01/20 01:44:29;;;;;;;77.13;32.75;;;-3.90;99.90;;;;;;5041836;28;20048;-79
2024/01/20 01:47:18;;;;;;;62.90;28.67;;;-3.90;99.90;;;;;;5046748;28;20056;-78
2024/01/20 01:50:06;;;;;;;63.47;30.10;;;-3.90;99.90;;;;;;5044589;28;20052;-78
2024/01/20 01:52:54;;;;;;;64.13;29.92;;;-3.90;99.90;;;;;;5047190;28;20059;-77
2024/01/20 01:55:44;;;;;;;63.97;30.48;;;-3.90;99.90;;;;;;5048990;28;20068;-78
2024/01/20 01:58:33;;;;;;;73.90;32.35;;;-3.90;99.90;;;;;;5035705;28;20036;-78
2024/01/20 02:01:20;;;;;;;67.65;32.33;;;-3.90;99.90;;;;;;5047913;28;20576;-76
2024/01/20 02:04:08;;;;;;;68.40;30.63;;;-3.90;99.90;;;;;;5045412;28;20410;-77
2024/01/20 02:06:57;;;;;;;67.90;31.63;;;-3.90;99.90;;;;;;5020759;28;20053;-78
2024/01/20 02:09:45;;;;;;;74.30;31.65;;;-3.90;99.90;;;;;;5041760;28;20179;-78
2024/01/20 02:12:34;;;;;;;69.80;29.52;;;-4.00;99.90;;;;;;5042801;28;20044;-78
2024/01/20 02:15:22;;;;;;;68.40;30.13;;;-4.10;99.90;;;;;;5028612;28;20041;-78
2024/01/20 02:18:11;;;;;;;71.13;31.38;;;-4.10;99.90;;;;;;5045526;28;20049;-78
2024/01/20 02:21:04;;;;;;;64.88;30.63;;;-4.20;99.90;;;;;;5071382;28;20052;-78
2024/01/20 02:23:52;;;;;;;74.03;32.08;;;-4.20;99.90;;;;;;5069295;28;20121;-77
2024/01/20 02:26:39;;;;;;;64.50;29.33;;;-4.30;99.90;;;;;;5038253;28;20037;-76
2024/01/20 02:29:26;;;;;;;68.55;30.90;;;-4.30;99.90;;;;;;5043116;28;20124;-78
2024/01/20 02:32:15;;;;;;;75.78;33.35;;;-4.40;99.90;;;;;;5029818;28;20052;-78
2024/01/20 02:35:03;;;;;;;70.10;30.55;;;-4.30;99.90;;;;;;5035613;28;20073;-79
2024/01/20 02:37:53;;;;;;;79.43;34.88;;;-4.40;99.90;;;;;;5029206;28;20068;-76
2024/01/20 02:40:40;;;;;;;84.07;35.70;;;-4.20;99.90;;;;;;5044913;28;20095;-79
2024/01/20 02:43:27;;;;;;;83.72;33.50;;;-4.30;99.90;;;;;;5025259;28;20053;-77
2024/01/20 02:46:14;;;;;;;82.75;33.70;;;-4.30;99.90;;;;;;5024198;28;20529;-77
2024/01/20 02:49:02;;;;;;;81.65;35.60;;;-4.30;99.90;;;;;;5034417;28;20179;-77
2024/01/20 02:51:50;;;;;;;70.28;33.13;;;-4.30;99.90;;;;;;5039012;28;20640;-78
2024/01/20 02:54:39;;;;;;;81.43;35.58;;;-4.20;99.90;;;;;;5029901;28;20037;-78
2024/01/20 02:57:28;;;;;;;86.40;36.03;;;-4.10;99.90;;;;;;5045840;28;20037;-76
2024/01/20 03:00:15;;;;;;;79.70;34.97;;;-4.10;99.90;;;;;;5039222;28;20350;-78
2024/01/20 03:03:03;;;;;;;79.25;33.75;;;-4.20;99.90;;;;;;5036926;28;20049;-77
2024/01/20 03:05:51;;;;;;;68.22;33.25;;;-4.10;99.90;;;;;;5046741;28;20106;-77
2024/01/20 03:08:38;;;;;;;71.65;32.58;;;-4.10;99.90;;;;;;5035135;28;20045;-77
2024/01/20 03:11:25;;;;;;;76.15;34.65;;;-4.10;99.90;;;;;;5038084;28;20047;-77
2024/01/20 03:14:15;;;;;;;70.65;33.47;;;-4.20;99.90;;;;;;5017970;28;20426;-77
2024/01/20 03:17:02;;;;;;;77.25;33.17;;;-4.30;99.90;;;;;;5035477;28;20053;-78
2024/01/20 03:19:50;;;;;;;83.95;38.92;;;-4.30;99.90;;;;;;5038987;28;20049;-77
2024/01/20 03:22:41;;;;;;;79.78;33.65;;;-4.30;99.90;;;;;;5036068;28;20048;-76
2024/01/20 03:25:32;;;;;;;72.85;33.10;;;-4.20;99.90;;;;;;5030727;28;20506;-77
2024/01/20 03:28:21;;;;;;;92.13;42.40;;;-4.20;99.90;;;;;;5036557;28;20052;-78
2024/01/20 03:31:10;;;;;;;87.05;38.33;;;-4.20;99.90;;;;;;5038711;28;20884;-77
2024/01/20 03:33:57;;;;;;;94.65;42.47;;;-4.20;99.90;;;;;;5022103;28;20505;-78
2024/01/20 03:36:46;;;;;;;82.40;35.80;;;-4.20;99.90;;;;;;5042220;28;20049;-77
2024/01/20 03:39:33;;;;;;;83.93;34.90;;;-4.20;99.90;;;;;;5045319;28;20095;-77
2024/01/20 03:42:22;;;;;;;78.03;33.88;;;-4.20;99.90;;;;;;5023718;28;20102;-76
2024/01/20 03:45:10;;;;;;;81.55;35.15;;;-4.10;99.90;;;;;;5043513;28;20045;-77
2024/01/20 03:47:57;;;;;;;85.28;38.17;;;-4.10;99.90;;;;;;5046939;28;20049;-76
2024/01/20 03:50:45;;;;;;;83.18;35.13;;;-4.20;99.90;;;;;;5048890;28;20057;-77
2024/01/20 03:53:35;;;;;;;84.20;34.35;;;-4.20;99.90;;;;;;5045871;28;20041;-77
2024/01/20 03:56:22;;;;;;;77.43;35.35;;;-4.10;99.90;;;;;;5034354;28;20183;-76
2024/01/20 03:59:10;;;;;;;74.63;34.63;;;-4.10;99.90;;;;;;5032112;28;20061;-76
2024/01/20 04:01:57;;;;;;;74.35;35.10;;;-4.20;99.90;;;;;;5030254;28;20045;-77
2024/01/20 04:04:45;;;;;;;72.35;33.92;;;-4.20;99.90;;;;;;5034147;28;20046;-78
2024/01/20 04:07:37;;;;;;;71.65;32.22;;;-4.30;99.90;;;;;;5039310;28;20052;-78
2024/01/20 04:10:26;;;;;;;72.25;33.00;;;-4.30;99.90;;;;;;5030895;28;20146;-77
2024/01/20 04:13:13;;;;;;;81.63;36.65;;;-4.30;99.90;;;;;;5037177;28;20056;-77
2024/01/20 04:16:04;;;;;;;73.85;34.75;;;-4.30;99.90;;;;;;5035396;28;20107;-78
2024/01/20 04:18:52;;;;;;;75.78;34.35;;;-4.20;99.90;;;;;;5037294;28;20045;-79
2024/01/20 04:21:40;;;;;;;71.40;31.95;;;-4.30;99.90;;;;;;5042417;28;20573;-77
2024/01/20 04:24:30;;;;;;;70.65;32.88;;;-4.40;99.90;;;;;;5041754;28;20049;-78
2024/01/20 04:27:20;;;;;;;75.00;34.47;;;-4.50;99.90;;;;;;5028503;28;20344;-78
2024/01/20 04:30:11;;;;;;;69.75;32.88;;;-4.40;99.90;;;;;;5041779;28;20050;-77
2024/01/20 04:33:02;;;;;;;76.10;34.88;;;-4.50;99.90;;;;;;5041365;28;20049;-77
2024/01/20 04:35:50;;;;;;;82.20;36.40;;;-4.50;99.90;;;;;;5023839;28;20501;-78
2024/01/20 04:38:38;;;;;;;77.75;35.53;;;-4.50;99.90;;;;;;5017593;28;20102;-77
2024/01/20 04:41:26;;;;;;;76.07;34.05;;;-4.50;99.90;;;;;;5036685;28;20052;-77
2024/01/20 04:44:15;;;;;;;78.38;33.25;;;-4.60;99.90;;;;;;5034805;28;20091;-77
2024/01/20 04:47:05;;;;;;;75.43;35.33;;;-4.60;99.90;;;;;;5031399;28;20045;-78
2024/01/20 04:49:53;;;;;;;79.07;36.78;;;-4.70;99.90;;;;;;5038618;28;20191;-77
2024/01/20 04:52:41;;;;;;;85.68;37.78;;;-4.70;99.90;;;;;;5035021;28;20180;-77
2024/01/20 04:55:28;;;;;;;89.18;37.28;;;-4.70;99.90;;;;;;5030721;28;20056;-78
2024/01/20 04:58:17;;;;;;;79.32;35.85;;;-4.70;99.90;;;;;;5034416;28;20056;-78
2024/01/20 05:01:05;;;;;;;80.07;33.88;;;-4.70;99.90;;;;;;5042283;28;20821;-78
2024/01/20 05:03:53;;;;;;;79.72;36.30;;;-4.70;99.90;;;;;;5034874;28;20119;-80
2024/01/20 05:06:45;;;;;;;84.32;36.33;;;-4.70;99.90;;;;;;5043801;28;20052;-78
2024/01/20 05:09:33;;;;;;;94.53;38.30;;;-4.70;99.90;;;;;;5046115;28;20041;-79
2024/01/20 05:12:20;;;;;;;92.60;38.05;;;-4.70;99.90;;;;;;5035909;28;20390;-79
2024/01/20 05:15:11;;;;;;;84.35;36.75;;;-4.70;99.90;;;;;;5027753;28;20128;-79
2024/01/20 05:17:59;;;;;;;85.82;39.72;;;-4.70;99.90;;;;;;5055867;28;20049;-79
2024/01/20 05:20:50;;;;;;;90.35;39.00;;;-4.60;99.90;;;;;;5042079;28;20108;-78
2024/01/20 05:23:37;;;;;;;86.93;41.00;;;-4.70;99.90;;;;;;5039013;28;20115;-77
2024/01/20 05:26:24;;;;;;;98.25;40.08;;;-4.60;99.90;;;;;;5037238;28;20468;-78
2024/01/20 05:29:12;;;;;;;94.55;38.45;;;-4.60;99.90;;;;;;5034030;28;20041;-78
2024/01/20 05:31:59;;;;;;;90.38;38.45;;;-4.60;99.90;;;;;;5020422;28;20055;-76
2024/01/20 05:34:46;;;;;;;93.38;38.63;;;-4.60;99.90;;;;;;5045477;28;20045;-77
2024/01/20 05:37:34;;;;;;;89.60;35.97;;;-4.60;99.90;;;;;;5064184;28;20079;-77
2024/01/20 05:40:27;;;;;;;90.13;38.20;;;-4.60;99.90;;;;;;5040588;28;20072;-76
2024/01/20 05:43:17;;;;;;;92.90;39.45;;;-4.60;99.90;;;;;;5033638;28;20050;-77
2024/01/20 05:46:06;;;;;;;95.70;41.10;;;-4.60;99.90;;;;;;5031474;28;20041;-78
2024/01/20 05:48:54;;;;;;;101.88;43.25;;;-4.70;99.90;;;;;;5044124;28;20045;-78
2024/01/20 05:51:42;;;;;;;82.68;36.47;;;-4.70;99.90;;;;;;5045328;28;20044;-76
2024/01/20 05:54:29;;;;;;;89.80;37.08;;;-4.80;99.90;;;;;;5045699;28;20029;-77
2024/01/20 05:57:17;;;;;;;91.28;38.35;;;-4.80;99.90;;;;;;5060800;28;20075;-79
2024/01/20 06:00:06;;;;;;;90.35;40.15;;;-4.70;99.90;;;;;;5062442;28;20100;-75
2024/01/20 06:02:55;;;;;;;87.13;38.60;;;-4.70;99.90;;;;;;5056359;28;20041;-77
2024/01/20 06:05:44;;;;;;;88.85;39.28;;;-4.80;99.90;;;;;;5040351;28;20094;-78
2024/01/20 06:08:32;;;;;;;98.45;39.92;;;-4.80;99.90;;;;;;5036942;28;20044;-78
2024/01/20 06:11:23;;;;;;;102.00;40.17;;;-4.70;99.90;;;;;;5034607;28;20634;-77
2024/01/20 06:14:10;;;;;;;93.97;40.47;;;-4.70;99.90;;;;;;5033841;28;20490;-77
2024/01/20 06:16:58;;;;;;;97.78;40.35;;;-4.70;99.90;;;;;;5036802;28;20103;-77
2024/01/20 06:19:48;;;;;;;97.07;40.40;;;-4.70;99.90;;;;;;5037936;28;20520;-77
2024/01/20 06:22:39;;;;;;;93.90;41.97;;;-4.70;99.90;;;;;;5038354;28;20045;-77
2024/01/20 06:25:26;;;;;;;89.50;40.90;;;-4.70;99.90;;;;;;5040795;28;20254;-78
2024/01/20 06:28:17;;;;;;;84.82;37.58;;;-4.90;99.90;;;;;;5058505;28;20465;-78
2024/01/20 06:31:05;;;;;;;88.72;36.55;;;-5.00;99.90;;;;;;5039393;28;20075;-78
2024/01/20 06:33:54;;;;;;;86.80;37.72;;;-5.10;99.90;;;;;;5023082;28;20049;-77
2024/01/20 06:36:45;;;;;;;99.95;43.80;;;-5.00;99.90;;;;;;5035135;28;20529;-78
2024/01/20 06:39:34;;;;;;;84.30;37.92;;;-5.00;99.90;;;;;;5034860;28;20467;-77
2024/01/20 06:42:21;;;;;;;90.00;37.33;;;-5.10;99.90;;;;;;5045665;28;20429;-77
2024/01/20 06:45:09;;;;;;;99.88;41.05;;;-5.10;99.90;;;;;;5041978;28;20045;-77
2024/01/20 06:47:57;;;;;;;94.57;40.60;;;-5.10;99.90;;;;;;5039893;28;20478;-76
2024/01/20 06:50:44;;;;;;;86.65;37.60;;;-5.10;99.90;;;;;;5040408;28;20490;-76
2024/01/20 06:53:32;;;;;;;92.35;39.05;;;-5.10;99.90;;;;;;5011068;28;20126;-76
2024/01/20 06:56:21;;;;;;;103.50;41.97;;;-5.10;99.90;;;;;;5033681;28;20049;-76
2024/01/20 06:59:08;;;;;;;95.00;43.63;;;-5.20;99.90;;;;;;5024918;28;20057;-76
2024/01/20 07:01:56;;;;;;;103.97;43.92;;;-5.20;99.90;;;;;;5035741;28;20041;-76
2024/01/20 07:04:45;;;;;;;103.95;43.05;;;-5.20;99.90;;;;;;5035743;28;20049;-76
2024/01/20 07:07:35;;;;;;;103.20;41.53;;;-5.20;99.90;;;;;;5034855;28;20072;-76
2024/01/20 07:10:24;;;;;;;109.80;47.72;;;-5.10;99.90;;;;;;5040837;28;20068;-75
2024/01/20 07:13:13;;;;;;;109.07;43.17;;;-5.10;99.90;;;;;;5045490;28;20070;-78
2024/01/20 07:16:13;;;;;;;115.38;44.78;;;-5.20;99.90;;;;;;5040944;28;20037;-77
2024/01/20 07:19:02;;;;;;;107.25;44.03;;;-5.10;99.90;;;;;;5029457;28;20426;-77
2024/01/20 07:21:49;;;;;;;116.07;46.03;;;-5.00;99.90;;;;;;5041582;28;20041;-77
2024/01/20 07:24:37;;;;;;;108.75;42.33;;;-5.00;99.90;;;;;;5042411;28;20078;-79
2024/01/20 07:27:24;;;;;;;97.63;41.10;;;-5.00;99.90;;;;;;5047757;28;20048;-79
2024/01/20 07:30:12;;;;;;;95.97;41.42;;;-4.90;99.90;;;;;;5039203;28;20091;-79
2024/01/20 07:33:02;;;;;;;115.15;46.20;;;-4.90;99.90;;;;;;5035915;28;20075;-79
2024/01/20 07:35:49;;;;;;;139.73;48.00;;;-4.90;99.90;;;;;;5025713;28;20037;-79
2024/01/20 07:38:38;;;;;;;116.13;47.03;;;-4.90;99.90;;;;;;5042671;28;20052;-80
2024/01/20 07:41:25;;;;;;;115.38;45.20;;;-4.90;99.90;;;;;;5039680;28;20143;-81
2024/01/20 07:44:13;;;;;;;98.10;42.58;;;-4.90;99.90;;;;;;5038733;28;20045;-78
2024/01/20 07:47:02;;;;;;;115.80;46.55;;;-4.90;99.90;;;;;;5037943;28;20054;-77
2024/01/20 07:49:50;;;;;;;112.78;45.90;;;-4.90;99.90;;;;;;5034605;28;20037;-77
2024/01/20 07:52:38;;;;;;;101.28;40.83;;;-5.00;99.90;;;;;;5036960;28;20041;-78
2024/01/20 07:55:29;;;;;;;106.50;44.65;;;-5.00;99.90;;;;;;5040589;28;20754;-78
2024/01/20 07:58:18;;;;;;;110.38;44.38;;;-5.00;99.90;;;;;;5041907;28;20249;-78
2024/01/20 08:01:06;;;;;;;100.15;40.70;;;-4.90;99.90;;;;;;5039187;28;20394;-79
2024/01/20 08:03:55;;;;;;;95.25;40.65;;;-4.90;99.90;;;;;;5042862;28;20048;-78
2024/01/20 08:06:44;;;;;;;100.60;39.97;;;-4.90;99.90;;;;;;5028967;28;20041;-77
2024/01/20 08:09:31;;;;;;;107.80;43.42;;;-5.00;99.90;;;;;;5047397;28;20418;-78
2024/01/20 08:12:19;;;;;;;108.78;44.33;;;-5.10;99.90;;;;;;5040622;28;20033;-79
2024/01/20 08:15:10;;;;;;;101.07;41.53;;;-5.10;99.90;;;;;;5037599;28;20052;-78
2024/01/20 08:17:58;;;;;;;102.78;41.72;;;-5.10;99.90;;;;;;5040319;28;20446;-80
2024/01/20 08:20:46;;;;;;;98.82;38.58;;;-5.00;99.90;;;;;;5041866;28;20052;-79
2024/01/20 08:23:36;;;;;;;99.65;40.83;;;-5.00;99.90;;;;;;5036602;28;20045;-78
2024/01/20 08:26:26;;;;;;;97.78;40.03;;;-5.00;99.90;;;;;;5026049;28;20045;-78
2024/01/20 08:29:18;;;;;;;69.97;28.38;;;-5.00;99.90;;;;;;5031332;28;20055;-78
2024/01/20 08:32:05;;;;;;;93.47;38.60;;;-4.90;99.90;;;;;;5024624;28;20047;-80
2024/01/20 08:34:53;;;;;;;95.75;39.67;;;-4.80;99.90;;;;;;5040589;28;20040;-78
2024/01/20 08:37:41;;;;;;;101.78;43.05;;;-4.70;99.90;;;;;;5038714;28;20108;-78
2024/01/20 08:40:31;;;;;;;93.47;40.42;;;-4.60;99.90;;;;;;5043866;28;20052;-79
2024/01/20 08:43:18;;;;;;;94.85;41.42;;;-4.50;99.90;;;;;;5047409;28;20061;-78
2024/01/20 08:46:10;;;;;;;94.10;39.90;;;-4.60;99.90;;;;;;5041317;28;20056;-78
2024/01/20 08:48:59;;;;;;;89.85;39.80;;;-4.70;99.90;;;;;;5051392;28;20104;-77
2024/01/20 08:51:48;;;;;;;96.07;40.25;;;-4.60;99.90;;;;;;5048743;28;20136;-77
2024/01/20 08:54:37;;;;;;;108.00;43.53;;;-4.80;99.90;;;;;;5051077;28;20593;-76
2024/01/20 08:57:24;;;;;;;92.88;41.00;;;-4.70;99.90;;;;;;5060979;28;20066;-77
2024/01/20 09:00:12;;;;;;;96.32;41.28;;;-4.70;99.90;;;;;;5050068;28;20049;-76
2024/01/20 09:03:08;;;;;;;92.72;38.90;;;-4.60;99.90;;;;;;5045060;28;20049;-78
2024/01/20 09:06:01;;;;;;;95.57;41.17;;;-4.30;99.90;;;;;;5041959;28;20045;-78
2024/01/20 09:08:49;;;;;;;98.95;42.80;;;-4.20;99.90;;;;;;5038518;28;20076;-77
2024/01/20 09:11:38;;;;;;;94.75;38.40;;;-4.20;99.90;;;;;;5037915;28;20041;-77
2024/01/20 09:14:26;;;;;;;92.25;41.75;;;-4.30;99.90;;;;;;5036705;28;20045;-76
2024/01/20 09:17:15;;;;;;;82.97;37.33;;;-4.20;99.90;;;;;;5034629;28;20489;-78
2024/01/20 09:20:03;;;;;;;77.00;36.50;;;-4.20;99.90;;;;;;5039786;28;20796;-75
2024/01/20 09:22:52;;;;;;;89.15;38.70;;;-4.10;99.90;;;;;;5038604;28;20081;-77
2024/01/20 09:25:44;;;;;;;84.93;38.38;;;-4.10;99.90;;;;;;5059594;28;20037;-78
2024/01/20 09:28:31;;;;;;;90.50;40.75;;;-3.80;99.90;;;;;;5054244;28;20045;-79
2024/01/20 09:31:19;;;;;;;93.65;41.38;;;-3.40;99.10;;;;;;5054710;28;20071;-78
2024/01/20 09:34:10;;;;;;;78.05;38.00;;;-3.20;1.00;;;;;;5048764;28;20098;-78
2024/01/20 09:37:00;;;;;;;71.60;35.17;;;-3.00;1.00;;;;;;5043672;28;20044;-78
2024/01/20 09:39:49;;;;;;;72.43;34.78;;;-2.80;1.00;;;;;;5035793;28;20041;-76
2024/01/20 09:42:40;;;;;;;71.30;33.78;;;-2.90;1.00;;;;;;5033852;28;20099;-76
2024/01/20 09:45:29;;;;;;;63.40;30.83;;;-2.90;99.90;;;;;;5037579;28;20180;-77
2024/01/20 09:48:17;;;;;;;59.22;29.55;;;-2.90;99.90;;;;;;5052586;28;20048;-77
2024/01/20 09:51:07;;;;;;;60.92;32.33;;;-2.40;99.90;;;;;;5052566;28;20037;-76
2024/01/20 09:53:59;;;;;;;58.95;29.15;;;-2.10;1.00;;;;;;5046690;28;20047;-77
2024/01/20 09:56:47;;;;;;;54.20;27.70;;;-2.00;1.00;;;;;;5041746;28;20056;-78
2024/01/20 09:59:42;;;;;;;56.95;26.85;;;-1.90;1.00;;;;;;5046767;28;20632;-77
2024/01/20 10:02:39;;;;;;;46.47;26.38;;;-1.50;1.00;;;;;;5031423;28;20049;-78
2024/01/20 10:05:31;;;;;;;49.30;25.70;;;-0.80;99.90;;;;;;5042093;28;20049;-78
2024/01/20 10:08:20;;;;;;;42.28;24.05;;;0.30;99.90;;;;;;5047097;28;20052;-77
2024/01/20 10:11:09;;;;;;;40.72;23.27;;;1.20;1.00;;;;;;5044005;28;20521;-78
2024/01/20 10:14:00;;;;;;;35.97;21.13;;;2.10;99.90;;;;;;5043559;28;20428;-80
2024/01/20 10:16:49;;;;;;;32.20;19.27;;;2.80;1.00;;;;;;5044943;28;20041;-78
2024/01/20 10:19:38;;;;;;;36.75;20.75;;;3.20;99.90;;;;;;5024621;28;20049;-77
2024/01/20 10:22:28;;;;;;;30.92;20.08;;;3.40;99.90;;;;;;5055774;28;20048;-77
2024/01/20 10:25:20;;;;;;;29.48;17.92;;;3.60;82.70;;;;;;5048172;28;20045;-78
2024/01/20 10:28:08;;;;;;;27.17;16.73;;;4.40;1.00;;;;;;5060473;28;20048;-77
2024/01/20 10:30:56;;;;;;;26.60;17.92;;;4.90;1.00;;;;;;5040738;28;20049;-77
2024/01/20 10:33:48;;;;;;;30.33;19.15;;;5.60;1.00;;;;;;5041295;28;20053;-78
2024/01/20 10:36:44;;;;;;;28.95;17.38;;;6.30;99.90;;;;;;5047063;28;20041;-78
2024/01/20 10:39:35;;;;;;;29.15;18.85;;;7.00;99.90;;;;;;5059518;28;20170;-77
2024/01/20 10:42:30;;;;;;;28.48;19.02;;;6.70;99.90;;;;;;5047031;28;20424;-77
2024/01/20 10:45:23;;;;;;;30.45;19.58;;;5.70;99.90;;;;;;5043387;28;20060;-79
2024/01/20 10:48:17;;;;;;;29.27;19.90;;;5.40;99.90;;;;;;5053213;28;20143;-79
2024/01/20 10:51:11;;;;;;;30.73;18.60;;;5.30;99.90;;;;;;5048522;28;20063;-78
2024/01/20 10:54:01;;;;;;;27.20;17.60;;;4.80;99.90;;;;;;5046713;28;20045;-78
2024/01/20 10:56:51;;;;;;;25.88;15.90;;;5.30;99.90;;;;;;5036144;28;20915;-77
2024/01/20 10:59:43;;;;;;;23.33;15.68;;;6.80;99.90;;;;;;5038056;28;20606;-78
2024/01/20 11:02:31;;;;;;;23.08;15.65;;;8.10;99.90;;;;;;5032407;28;20132;-79
2024/01/20 11:05:25;;;;;;;20.35;14.27;;;8.60;99.90;;;;;;5024880;28;20049;-78
2024/01/20 11:08:13;;;;;;;22.98;15.90;;;8.10;99.90;;;;;;5028958;28;20087;-78
2024/01/20 11:11:09;;;;;;;20.60;13.77;;;8.90;91.20;;;;;;5046432;28;20045;-78
2024/01/20 11:13:59;;;;;;;22.42;15.10;;;8.10;62.40;;;;;;5062874;28;20051;-78
2024/01/20 11:16:50;;;;;;;22.80;14.80;;;7.90;52.70;;;;;;5050995;28;20098;-78
2024/01/20 11:19:40;;;;;;;22.60;15.27;;;7.40;41.30;;;;;;5039900;28;20045;-79
2024/01/20 11:22:34;;;;;;;23.80;15.52;;;7.60;37.70;;;;;;5037181;28;20049;-78
2024/01/20 11:25:24;;;;;;;;;;;7.50;30.20;;;;;;5038060;28;21083;-78
2024/01/20 11:28:22;;;;;;;22.83;14.00;;;8.40;31.50;;;;;;5027013;28;20405;-78
2024/01/20 11:31:20;;;;;;;21.50;15.18;;;9.70;26.20;;;;;;5041237;28;20518;-78
2024/01/20 11:34:08;;;;;;;21.77;15.65;;;10.10;19.50;;;;;;5041401;28;20041;-78
2024/01/20 11:36:58;;;;;;;21.45;15.85;;;9.80;12.40;;;;;;5037814;28;20447;-77
2024/01/20 11:39:48;;;;;;;22.50;15.02;;;8.00;5.20;;;;;;5043610;28;20045;-76
2024/01/20 11:42:36;;;;;;;23.23;15.90;;;7.70;6.40;;;;;;5066350;28;20033;-75
2024/01/20 11:45:23;;;;;;;25.77;17.00;;;8.10;3.90;;;;;;5041752;28;20045;-79
2024/01/20 11:48:15;;;;;;;24.52;16.42;;;9.00;3.40;;;;;;5041551;28;20253;-79
2024/01/20 11:51:04;;;;;;;31.05;19.02;;;8.10;1.00;;;;;;5046011;28;20041;-78
2024/01/20 11:53:52;;;;;;;33.25;17.38;;;7.30;1.00;;;;;;5038431;28;20052;-77
2024/01/20 11:56:43;;;;;;;26.75;17.70;;;6.80;1.00;;;;;;5047875;28;20041;-77
2024/01/20 11:59:30;;;;;;;27.90;17.60;;;6.90;1.00;;;;;;5042074;28;20068;-79
2024/01/20 12:02:17;;;;;;;26.88;17.55;;;7.90;1.00;;;;;;5038452;28;20126;-79
2024/01/20 12:05:05;;;;;;;26.95;15.32;;;8.10;1.00;;;;;;5031676;28;20104;-77
2024/01/20 12:08:04;;;;;;;28.40;17.20;;;8.00;1.00;;;;;;5057158;28;20029;-80
2024/01/20 12:10:57;;;;;;;23.17;15.63;;;8.20;1.00;;;;;;5049896;28;20144;-79
2024/01/20 12:13:46;;;;;;;21.15;14.25;;;9.10;1.00;;;;;;5043495;28;20045;-80
2024/01/20 12:16:34;;;;;;;24.13;15.85;;;10.10;1.00;;;;;;5022055;28;20033;-80
2024/01/20 12:19:21;;;;;;;23.08;14.82;;;10.50;1.00;;;;;;5040459;28;20036;-79
2024/01/20 12:22:15;;;;;;;23.48;15.48;;;10.60;1.00;;;;;;5032797;28;20061;-80
2024/01/20 12:25:05;;;;;;;22.15;13.52;;;10.80;1.00;;;;;;5042323;28;20045;-78
2024/01/20 12:27:53;;;;;;;18.88;14.00;;;11.00;1.00;;;;;;5042814;28;20451;-77
2024/01/20 12:30:43;;;;;;;20.25;14.43;;;11.00;1.00;;;;;;5032296;28;20733;-76
2024/01/20 12:33:32;;;;;;;23.38;13.15;;;10.00;1.00;;;;;;5043396;28;20045;-77
2024/01/20 12:36:19;;;;;;;22.45;13.55;;;9.30;1.00;;;;;;5046730;28;20187;-79
2024/01/20 12:39:08;;;;;;;19.10;12.35;;;8.10;1.00;;;;;;5039485;28;20057;-77
2024/01/20 12:42:04;;;;;;;21.00;12.95;;;8.20;1.00;;;;;;5049965;28;20049;-80
2024/01/20 12:44:55;;;;;;;17.92;11.35;;;9.00;1.00;;;;;;5051774;28;20133;-77
2024/01/20 12:47:49;;;;;;;;;;;8.90;1.00;;;;;;5047319;28;20037;-77
2024/01/20 12:50:37;;;;;;;15.82;10.65;;;9.10;1.00;;;;;;5040505;28;20012;-78
2024/01/20 12:53:28;;;;;;;14.88;10.30;;;9.30;1.00;;;;;;5045878;28;20251;-77
2024/01/20 12:56:16;;;;;;;15.20;10.50;;;9.40;1.00;;;;;;5036353;28;20123;-80
2024/01/20 12:59:05;;;;;;;16.23;10.45;;;9.10;1.00;;;;;;5015726;28;20050;-78
2024/01/20 13:01:54;;;;;;;17.17;11.00;;;10.10;1.00;;;;;;5035657;28;20045;-78
2024/01/20 13:04:42;;;;;;;19.00;11.13;;;10.20;1.00;;;;;;5038770;28;20056;-77
2024/01/20 13:07:31;;;;;;;21.38;10.65;;;9.70;1.00;;;;;;5030440;28;20163;-77
2024/01/20 13:10:21;;;;;;;16.60;10.90;;;9.60;1.00;;;;;;5034690;28;20053;-78
2024/01/20 13:13:09;;;;;;;17.77;10.50;;;9.50;1.00;;;;;;5039124;28;20037;-77
2024/01/20 13:15:57;;;;;;;15.73;10.57;;;9.20;1.00;;;;;;5037069;28;20053;-75
2024/01/20 13:18:45;;;;;;;14.32;9.68;;;10.00;1.00;;;;;;5043267;28;20072;-78
2024/01/20 13:21:33;;;;;;;16.15;11.00;;;9.60;1.00;;;;;;5045297;28;20051;-77
2024/01/20 13:24:21;;;;;;;16.98;10.60;;;9.00;1.00;;;;;;5034697;28;20045;-79
2024/01/20 13:27:09;;;;;;;16.98;10.55;;;8.70;1.00;;;;;;5046695;28;20056;-79
2024/01/20 13:29:57;;;;;;;16.48;9.73;;;8.20;1.00;;;;;;5030215;28;20064;-77
2024/01/20 13:32:45;;;;;;;19.95;11.75;;;7.70;1.00;;;;;;5041109;28;20045;-78
2024/01/20 13:35:33;;;;;;;18.00;10.45;;;7.60;1.00;;;;;;5041491;28;20513;-76
2024/01/20 13:38:21;;;;;;;18.48;10.93;;;7.60;1.00;;;;;;5040542;28;20088;-78
2024/01/20 13:41:10;;;;;;;16.48;10.13;;;7.40;1.00;;;;;;5037971;28;20103;-78
2024/01/20 13:43:58;;;;;;;14.60;9.68;;;8.10;1.00;;;;;;5040798;28;20625;-78
2024/01/20 13:46:47;;;;;;;14.27;9.13;;;8.50;1.00;;;;;;5035224;28;20052;-78
2024/01/20 13:49:35;;;;;;;15.32;8.82;;;8.70;1.00;;;;;;5041360;28;20049;-77
2024/01/20 13:52:23;;;;;;;19.15;9.70;;;8.90;1.00;;;;;;5040704;28;20056;-77
2024/01/20 13:55:13;;;;;;;18.42;10.48;;;9.20;1.00;;;;;;5043237;28;20124;-78
2024/01/20 13:58:02;;;;;;;13.15;8.60;;;9.20;1.00;;;;;;5044133;28;20096;-76
2024/01/20 14:00:50;;;;;;;26.23;14.10;;;9.80;1.00;;;;;;5048211;28;20787;-78
2024/01/20 14:03:38;;;;;;;20.38;10.23;;;9.20;1.00;;;;;;5033191;28;20044;-77
2024/01/20 14:06:25;;;;;;;14.82;9.25;;;9.30;1.00;;;;;;5046581;28;20470;-76
2024/01/20 14:09:13;;;;;;;14.70;8.63;;;9.00;1.00;;;;;;5054625;28;20052;-78
2024/01/20 14:12:03;;;;;;;16.98;8.82;;;9.70;1.00;;;;;;5047190;28;20053;-78
2024/01/20 14:14:53;;;;;;;20.55;9.90;;;10.50;1.00;;;;;;5040186;28;20064;-78
2024/01/20 14:17:43;;;;;;;14.40;9.15;;;11.10;1.00;;;;;;5056317;28;20065;-76
2024/01/20 14:20:32;;;;;;;12.63;8.57;;;11.30;1.00;;;;;;5059163;28;20553;-78